Time;durP1;ratioP1;P1;durP2;ratioP2;P2;SDS_P1;SDS_P2;PMS_P1;PMS_P2;Temp;Humidity;BMP_temperature;BMP_pressure;BME280_temperature;BME280_humidity;BME280_pressure;Samples;Min_cycle;Max_cycle;Signal;HPM_P1;HPM_P2
2024/04/24 00:00:24;;;;;;;6.67;3.00;;;;;5.40;100964.00;;;;13861669;21;20254;-77
2024/04/24 00:05:26;;;;;;;7.97;3.33;;;;;5.30;100956.00;;;;13918967;21;20269;-77
2024/04/24 00:10:27;;;;;;;9.70;2.90;;;;;5.40;100953.00;;;;13918333;21;20269;-79
2024/04/24 00:15:29;;;;;;;14.03;3.37;;;;;5.50;100944.00;;;;13890171;21;20251;-78
2024/04/24 00:20:30;;;;;;;6.60;1.90;;;;;5.50;100938.00;;;;13902977;21;20351;-78
2024/04/24 00:25:32;;;;;;;15.20;2.63;;;;;5.40;100934.00;;;;13868769;21;20264;-78
2024/04/24 00:30:33;;;;;;;5.93;1.87;;;;;5.30;100927.00;;;;13879869;21;20301;-78
2024/04/24 00:35:35;;;;;;;6.67;2.50;;;;;5.30;100929.00;;;;13797731;21;20297;-80
2024/04/24 00:40:38;;;;;;;7.90;2.20;;;;;5.30;100909.00;;;;13853067;21;20250;-80
2024/04/24 00:45:39;;;;;;;7.80;2.40;;;;;5.20;100897.00;;;;13865426;21;20247;-80
2024/04/24 00:50:41;;;;;;;7.80;2.60;;;;;5.20;100895.00;;;;13832659;21;20254;-81
2024/04/24 00:55:43;;;;;;;9.97;2.30;;;;;5.20;100882.00;;;;13838774;21;20242;-81
2024/04/24 01:00:45;;;;;;;7.63;2.47;;;;;5.20;100875.00;;;;13928517;21;20264;-81
2024/04/24 01:05:47;;;;;;;5.43;1.73;;;;;5.20;100874.00;;;;13926377;21;20250;-81
2024/04/24 01:10:58;;;;;;;6.13;1.80;;;;;5.20;100866.00;;;;13875486;21;20330;-81
2024/04/24 01:16:12;;;;;;;7.13;1.80;;;;;5.10;100865.00;;;;13881261;21;20262;-80
2024/04/24 01:21:15;;;;;;;7.10;1.93;;;;;5.00;100869.00;;;;13855040;21;20301;-80
2024/04/24 01:26:46;;;;;;;9.80;2.40;;;;;5.00;100865.00;;;;13926361;21;20255;-80
2024/04/24 01:31:48;;;;;;;7.57;2.20;;;;;4.90;100860.00;;;;13860955;21;20681;-81
2024/04/24 01:36:49;;;;;;;5.70;1.87;;;;;4.80;100853.00;;;;13895973;21;20251;-80
2024/04/24 01:41:51;;;;;;;7.10;2.57;;;;;4.70;100855.00;;;;13750555;21;20359;-81
2024/04/24 01:46:53;;;;;;;5.93;1.83;;;;;4.70;100848.00;;;;13806754;21;20392;-78
2024/04/24 01:51:54;;;;;;;9.77;2.30;;;;;4.80;100844.00;;;;13810135;21;20706;-78
2024/04/24 01:56:56;;;;;;;8.00;2.00;;;;;4.80;100845.00;;;;13812861;21;20311;-80
2024/04/24 02:01:57;;;;;;;6.27;1.70;;;;;4.70;100834.00;;;;13746491;21;20263;-80
2024/04/24 02:06:59;;;;;;;7.43;2.10;;;;;4.70;100822.00;;;;13724484;21;20266;-78
2024/04/24 02:12:01;;;;;;;8.63;1.87;;;;;4.80;100825.00;;;;13817778;21;20535;-79
2024/04/24 02:17:16;;;;;;;6.10;2.10;;;;;4.90;100844.00;;;;13780106;21;20270;-77
2024/04/24 02:22:18;;;;;;;9.13;2.20;;;;;4.80;100822.00;;;;13797892;21;20360;-75
2024/04/24 02:27:19;;;;;;;3.60;1.60;;;;;4.80;100814.00;;;;13811366;21;20247;-77
2024/04/24 02:32:20;;;;;;;4.43;1.40;;;;;4.60;100815.00;;;;13818396;21;20553;-79
2024/04/24 02:37:22;;;;;;;5.80;2.07;;;;;4.60;100806.00;;;;13782548;21;20255;-79
2024/04/24 02:42:23;;;;;;;7.20;1.90;;;;;4.60;100804.00;;;;13794315;21;20285;-77
2024/04/24 02:47:25;;;;;;;8.13;2.53;;;;;4.60;100801.00;;;;13759088;21;20538;-78
2024/04/24 02:52:26;;;;;;;8.50;2.50;;;;;4.70;100778.00;;;;13771955;21;21059;-77
2024/04/24 02:57:28;;;;;;;6.33;2.90;;;;;4.80;100777.00;;;;13735817;21;20354;-77
2024/04/24 03:02:30;;;;;;;5.67;2.77;;;;;4.80;100772.00;;;;13728430;21;20360;-76
2024/04/24 03:07:31;;;;;;;5.70;2.23;;;;;4.70;100768.00;;;;13802131;21;21115;-77
2024/04/24 03:12:33;;;;;;;6.77;1.83;;;;;4.60;100771.00;;;;13814953;21;21055;-77
2024/04/24 03:17:37;;;;;;;8.67;2.17;;;;;4.50;100789.00;;;;13775313;21;20239;-76
2024/04/24 03:22:39;;;;;;;4.03;1.60;;;;;4.30;100788.00;;;;13787822;21;20721;-79
2024/04/24 03:27:40;;;;;;;3.20;1.37;;;;;4.20;100757.00;;;;13752985;21;20393;-78
2024/04/24 03:32:42;;;;;;;5.80;0.87;;;;;4.10;100742.00;;;;13808745;21;20255;-79
2024/04/24 03:37:43;;;;;;;2.63;1.30;;;;;4.00;100730.00;;;;13770522;21;20270;-82
2024/04/24 03:42:45;;;;;;;4.43;1.40;;;;;4.00;100727.00;;;;13738866;21;20264;-82
2024/04/24 03:47:46;;;;;;;3.37;1.23;;;;;4.10;100739.00;;;;13795286;21;20282;-83
2024/04/24 03:52:48;;;;;;;6.83;2.00;;;;;4.10;100735.00;;;;13807282;21;20990;-82
2024/04/24 03:57:50;;;;;;;6.23;1.60;;;;;4.20;100734.00;;;;13811530;21;20252;-80
2024/04/24 04:02:51;;;;;;;3.70;1.37;;;;;4.20;100735.00;;;;13779016;21;20295;-82
2024/04/24 04:08:00;;;;;;;5.67;2.43;;;;;4.20;100725.00;;;;13816393;21;20240;-80
2024/04/24 04:13:02;;;;;;;4.30;3.17;;;;;4.30;100724.00;;;;13806428;21;20274;-80
2024/04/24 04:18:04;;;;;;;7.33;2.57;;;;;4.30;100720.00;;;;13809937;21;20251;-82
2024/04/24 04:23:06;;;;;;;4.60;2.07;;;;;4.30;100714.00;;;;13724689;21;20247;-79
2024/04/24 04:28:07;;;;;;;5.60;2.73;;;;;4.40;100715.00;;;;13814781;21;20576;-82
2024/04/24 04:33:09;;;;;;;7.13;1.83;;;;;4.40;100723.00;;;;13799389;21;20251;-84
2024/04/24 04:38:10;;;;;;;3.50;1.37;;;;;4.30;100720.00;;;;13814429;21;20252;-83
2024/04/24 04:43:12;;;;;;;4.00;1.43;;;;;4.20;100722.00;;;;13814887;21;20251;-84
2024/04/24 04:48:13;;;;;;;3.67;1.10;;;;;4.10;100713.00;;;;13784393;21;20251;-85
2024/04/24 04:53:15;;;;;;;4.60;1.30;;;;;4.00;100696.00;;;;13797416;21;20622;-84
2024/04/24 04:58:16;;;;;;;3.43;1.03;;;;;4.00;100699.00;;;;13809655;21;21068;-84
2024/04/24 05:03:18;;;;;;;6.47;1.30;;;;;4.00;100705.00;;;;13679199;21;20259;-84
2024/04/24 05:08:20;;;;;;;5.30;1.37;;;;;4.10;100700.00;;;;13806075;21;20264;-83
2024/04/24 05:13:21;;;;;;;5.43;1.47;;;;;4.20;100703.00;;;;13716241;21;20244;-85
2024/04/24 05:18:23;;;;;;;2.87;1.67;;;;;4.40;100707.00;;;;13814763;21;20271;-85
2024/04/24 05:23:26;;;;;;;3.60;2.33;;;;;4.60;100705.00;;;;13767756;21;20270;-86
2024/04/24 05:33:50;;;;;;;4.00;1.70;;;;;4.80;100711.00;;;;13813703;21;20369;-85
2024/04/24 05:38:51;;;;;;;9.27;2.07;;;;;4.80;100705.00;;;;13811913;21;20314;-85
2024/04/24 05:43:53;;;;;;;7.70;2.00;;;;;4.80;100705.00;;;;13770966;21;20258;-79
2024/04/24 05:48:54;;;;;;;6.17;1.90;;;;;4.90;100707.00;;;;13812352;21;20363;-82
2024/04/24 05:53:56;;;;;;;5.93;1.80;;;;;5.00;100697.00;;;;13815833;21;20251;-80
2024/04/24 05:58:57;;;;;;;7.23;1.60;;;;;5.10;100701.00;;;;13820676;21;20244;-79
2024/04/24 06:03:59;;;;;;;5.83;2.40;;;;;5.30;100696.00;;;;13818252;21;20799;-79
2024/04/24 06:09:01;;;;;;;9.77;2.03;;;;;5.50;100699.00;;;;13739883;21;20271;-80
2024/04/24 06:14:03;;;;;;;7.70;2.07;;;;;5.70;100693.00;;;;13686321;21;20251;-79
2024/04/24 06:19:06;;;;;;;8.97;1.93;;;;;5.80;100694.00;;;;13820061;21;20287;-78
2024/04/24 06:24:08;;;;;;;8.93;2.00;;;;;5.80;100699.00;;;;13819060;21;20286;-79
2024/04/24 06:29:13;;;;;;;13.27;2.43;;;;;6.00;100673.00;;;;13738588;21;20243;-78
2024/04/24 06:34:15;;;;;;;7.53;1.80;;;;;6.30;100675.00;;;;13793919;21;20251;-79
2024/04/24 06:39:16;;;;;;;5.00;2.03;;;;;6.50;100670.00;;;;13761311;21;20289;-79
2024/04/24 06:44:17;;;;;;;7.13;1.83;;;;;6.70;100675.00;;;;13810853;21;20282;-78
2024/04/24 06:49:19;;;;;;;4.57;1.40;;;;;6.80;100679.00;;;;13734890;21;20273;-78
2024/04/24 06:54:20;;;;;;;7.87;1.77;;;;;7.10;100664.00;;;;13789645;21;20263;-83
2024/04/24 06:59:23;;;;;;;7.70;2.40;;;;;7.30;100657.00;;;;13814849;21;20247;-83
2024/04/24 07:04:24;;;;;;;7.13;2.40;;;;;7.50;100669.00;;;;13768012;21;20400;-81
2024/04/24 07:09:25;;;;;;;8.20;2.13;;;;;7.40;100661.00;;;;13771696;21;20547;-81
2024/04/24 07:14:27;;;;;;;5.00;2.00;;;;;7.50;100661.00;;;;13816588;21;20668;-81
2024/04/24 07:19:32;;;;;;;8.40;2.50;;;;;8.10;100650.00;;;;13710274;21;20251;-80
2024/04/24 07:24:33;;;;;;;11.00;2.40;;;;;9.00;100642.00;;;;13818500;21;20564;-80
2024/04/24 07:29:35;;;;;;;6.80;1.70;;;;;8.80;100646.00;;;;13813818;21;20601;-81
2024/04/24 07:34:36;;;;;;;9.63;2.27;;;;;8.90;100638.00;;;;13783677;21;20287;-80
2024/04/24 07:39:38;;;;;;;7.67;1.83;;;;;9.90;100637.00;;;;13795619;21;20259;-79
2024/04/24 07:44:43;;;;;;;4.50;1.93;;;;;10.70;100622.00;;;;13848960;21;20291;-80
2024/04/24 07:49:44;;;;;;;6.67;2.00;;;;;11.00;100622.00;;;;13768537;21;20816;-79
2024/04/24 07:54:46;;;;;;;6.17;1.73;;;;;10.00;100635.00;;;;13781256;21;20255;-80
2024/04/24 07:59:48;;;;;;;8.70;2.17;;;;;8.30;100656.00;;;;13791796;21;20303;-81
2024/04/24 08:04:49;;;;;;;7.87;1.93;;;;;7.50;100648.00;;;;13806149;21;20267;-79
2024/04/24 08:09:51;;;;;;;4.57;0.90;;;;;7.40;100647.00;;;;13812505;21;20251;-79
2024/04/24 08:14:55;;;;;;;3.10;1.03;;;;;7.70;100644.00;;;;13777279;21;20290;-79
2024/04/24 08:19:57;;;;;;;1.90;0.93;;;;;9.50;100633.00;;;;13747025;21;20658;-79
2024/04/24 08:24:58;;;;;;;9.23;1.90;;;;;10.10;100639.00;;;;13713568;21;20251;-81
2024/04/24 08:30:00;;;;;;;6.30;1.80;;;;;10.10;100625.00;;;;13725155;21;20244;-79
2024/04/24 08:35:02;;;;;;;8.47;1.77;;;;;11.20;100632.00;;;;13774740;21;20267;-81
2024/04/24 08:40:04;;;;;;;6.40;2.77;;;;;10.40;100620.00;;;;13742494;21;20247;-80
2024/04/24 08:45:07;;;;;;;7.87;1.93;;;;;11.20;100612.00;;;;13754445;21;20352;-79
2024/04/24 08:50:09;;;;;;;5.20;1.43;;;;;11.90;100614.00;;;;13816704;21;20250;-79
2024/04/24 08:55:13;;;;;;;13.53;1.63;;;;;10.70;100612.00;;;;13810213;21;20352;-79
2024/04/24 09:00:16;;;;;;;5.23;1.43;;;;;11.90;100609.00;;;;13783688;21;20256;-80
2024/04/24 09:05:20;;;;;;;7.70;1.50;;;;;12.00;100603.00;;;;13795719;21;20243;-80
2024/04/24 09:10:22;;;;;;;3.93;1.10;;;;;12.50;100591.00;;;;13807706;21;20260;-79
2024/04/24 09:15:26;;;;;;;6.20;0.97;;;;;10.80;100610.00;;;;13768881;21;20859;-78
2024/04/24 09:20:31;;;;;;;3.20;0.80;;;;;9.50;100601.00;;;;13783439;21;20720;-78
2024/04/24 09:25:32;;;;;;;3.77;0.73;;;;;9.60;100614.00;;;;13794774;21;20251;-78
2024/04/24 09:30:35;;;;;;;4.77;1.20;;;;;9.70;100601.00;;;;13803325;21;20869;-79
2024/04/24 09:35:38;;;;;;;3.97;1.10;;;;;10.80;100583.00;;;;13722602;21;20252;-78
2024/04/24 09:40:39;;;;;;;5.33;0.93;;;;;12.00;100576.00;;;;13779280;21;20294;-80
2024/04/24 09:45:41;;;;;;;3.30;0.87;;;;;12.90;100581.00;;;;13702001;21;20247;-79
2024/04/24 09:50:43;;;;;;;3.13;0.70;;;;;12.20;100569.00;;;;13804334;21;20324;-78
2024/04/24 09:56:08;;;;;;;7.17;1.10;;;;;12.70;100577.00;;;;13809788;21;20364;-79
2024/04/24 10:01:12;;;;;;;5.03;1.20;;;;;12.90;100572.00;;;;13678395;21;20273;-79
2024/04/24 10:06:20;;;;;;;10.40;1.50;;;;;12.90;100577.00;;;;13813014;21;20551;-79
2024/04/24 10:11:28;;;;;;;4.90;1.30;;;;;13.80;100569.00;;;;13798173;21;20311;-79
2024/04/24 10:16:31;;;;;;;6.53;1.30;;;;;12.60;100556.00;;;;13774162;21;20832;-79
2024/04/24 10:21:33;;;;;;;4.53;1.03;;;;;9.70;100579.00;;;;13785887;21;20248;-80
2024/04/24 10:26:36;;;;;;;2.60;1.00;;;;;7.70;100609.00;;;;13754122;21;20260;-79
2024/04/24 10:31:39;;;;;;;8.20;1.60;;;;;5.90;100591.00;;;;13805739;21;20270;-76
2024/04/24 10:36:41;;;;;;;7.70;1.47;;;;;6.60;100577.00;;;;13813126;21;20260;-79
2024/04/24 10:41:45;;;;;;;8.20;1.63;;;;;9.10;100561.00;;;;13813279;21;20302;-80
2024/04/24 10:46:47;;;;;;;7.13;1.73;;;;;8.00;100590.00;;;;13818429;21;20278;-79
2024/04/24 10:51:48;;;;;;;7.90;1.13;;;;;6.90;100575.00;;;;13817621;21;20628;-79
2024/04/24 10:56:50;;;;;;;5.17;1.30;;;;;8.00;100563.00;;;;13766876;21;20252;-78
2024/04/24 11:01:52;;;;;;;6.00;1.23;;;;;9.90;100558.00;;;;13820188;21;20296;-80
2024/04/24 11:06:55;;;;;;;7.07;1.43;;;;;11.40;100542.00;;;;13727198;21;20262;-80
2024/04/24 11:11:57;;;;;;;4.60;1.30;;;;;12.10;100545.00;;;;13773219;21;20325;-78
2024/04/24 11:16:59;;;;;;;3.63;1.20;;;;;12.70;100544.00;;;;13815571;21;20322;-79
2024/04/24 11:22:01;;;;;;;4.00;1.27;;;;;13.00;100544.00;;;;13726876;21;20690;-79
2024/04/24 11:27:02;;;;;;;5.77;1.20;;;;;13.10;100540.00;;;;13814880;21;20247;-79
2024/04/24 11:32:05;;;;;;;4.05;1.40;;;;;13.70;100530.00;;;;13815754;21;20299;-83
2024/04/24 11:37:07;;;;;;;11.40;1.95;;;;;15.10;100528.00;;;;13813676;21;21080;-83
2024/04/24 11:42:08;;;;;;;4.63;1.77;;;;;14.80;100535.00;;;;13769971;21;20297;-82
2024/04/24 11:47:10;;;;;;;6.93;1.95;;;;;13.90;100523.00;;;;13812950;21;20244;-83
2024/04/24 11:52:12;;;;;;;9.80;1.73;;;;;14.00;100508.00;;;;13816741;21;20281;-82
2024/04/24 11:57:17;;;;;;;6.63;1.58;;;;;15.00;100529.00;;;;13769995;21;20336;-85
2024/04/24 12:02:23;;;;;;;9.00;2.33;;;;;15.00;100510.00;;;;13818427;21;20701;-83
2024/04/24 12:07:28;;;;;;;5.60;1.60;;;;;11.80;100517.00;;;;13813536;21;20248;-83
2024/04/24 12:12:30;;;;;;;9.70;1.77;;;;;9.50;100522.00;;;;13818900;21;20373;-83
2024/04/24 12:17:31;;;;;;;9.73;2.17;;;;;8.80;100522.00;;;;13817699;21;20590;-84
2024/04/24 12:22:33;;;;;;;8.33;1.93;;;;;9.60;100518.00;;;;13860020;21;20302;-84
2024/04/24 12:27:34;;;;;;;10.87;2.00;;;;;12.00;100505.00;;;;13815382;21;20795;-83
2024/04/24 12:32:36;;;;;;;6.57;1.47;;;;;13.50;100488.00;;;;13723864;21;21045;-82
2024/04/24 12:37:38;;;;;;;6.43;2.00;;;;;13.60;100493.00;;;;13723863;21;20282;-82
2024/04/24 12:42:40;;;;;;;5.73;1.67;;;;;12.90;100517.00;;;;13816500;21;20258;-81
2024/04/24 12:47:42;;;;;;;4.93;1.40;;;;;12.30;100508.00;;;;13811561;21;20282;-80
2024/04/24 12:52:44;;;;;;;7.30;1.43;;;;;12.70;100508.00;;;;13764655;21;20360;-81
2024/04/24 12:57:46;;;;;;;8.70;1.93;;;;;13.00;100487.00;;;;13811423;21;20254;-81
2024/04/24 13:02:47;;;;;;;6.40;1.50;;;;;13.50;100506.00;;;;13809430;21;20267;-80
2024/04/24 13:07:49;;;;;;;10.90;2.20;;;;;12.30;100496.00;;;;13809965;21;20248;-80
2024/04/24 13:12:50;;;;;;;8.87;1.93;;;;;11.90;100503.00;;;;13809375;21;20247;-80
2024/04/24 13:17:52;;;;;;;4.17;1.37;;;;;13.30;100496.00;;;;13722536;21;20274;-81
2024/04/24 13:22:54;;;;;;;7.50;1.73;;;;;14.80;100483.00;;;;13763331;21;20282;-79
2024/04/24 13:27:55;;;;;;;4.27;1.30;;;;;14.90;100478.00;;;;13811734;21;20254;-82
2024/04/24 13:32:57;;;;;;;6.05;1.55;;;;;14.50;100493.00;;;;13720524;21;20239;-81
2024/04/24 13:37:58;;;;;;;7.57;2.00;;;;;13.90;100495.00;;;;13809526;21;20286;-81
2024/04/24 13:42:59;;;;;;;7.43;1.27;;;;;13.00;100495.00;;;;13764344;21;20298;-80
2024/04/24 13:48:03;;;;;;;4.20;1.27;;;;;13.60;100494.00;;;;13765823;21;20779;-81
2024/04/24 13:53:06;;;;;;;6.13;1.70;;;;;12.40;100503.00;;;;13810115;21;20259;-81
2024/04/24 13:58:08;;;;;;;4.33;1.40;;;;;12.60;100507.00;;;;13806038;21;20344;-79
2024/04/24 14:03:09;;;;;;;2.80;1.13;;;;;11.50;100499.00;;;;13808166;21;20303;-81
2024/04/24 14:08:11;;;;;;;5.60;1.20;;;;;11.60;100484.00;;;;13805445;21;20277;-80
2024/04/24 14:13:12;;;;;;;5.73;1.20;;;;;12.50;100486.00;;;;13718489;21;21001;-78
2024/04/24 14:18:14;;;;;;;6.43;1.20;;;;;12.40;100491.00;;;;13767848;21;21017;-82
2024/04/24 14:23:15;;;;;;;3.53;1.37;;;;;11.40;100495.00;;;;13768531;21;20961;-81
2024/04/24 14:28:18;;;;;;;5.37;1.23;;;;;11.10;100493.00;;;;13809655;21;20354;-80
2024/04/24 14:33:19;;;;;;;8.77;1.27;;;;;11.40;100497.00;;;;13814301;21;20774;-80
2024/04/24 14:38:22;;;;;;;6.47;2.50;;;;;11.50;100490.00;;;;13767897;21;20260;-80
2024/04/24 14:43:24;;;;;;;4.77;1.13;;;;;11.60;100493.00;;;;13722004;21;20247;-81
2024/04/24 14:48:26;;;;;;;8.70;1.77;;;;;11.50;100486.00;;;;13761093;21;20297;-81
2024/04/24 14:53:27;;;;;;;5.80;2.03;;;;;11.30;100488.00;;;;13765698;21;20298;-82
2024/04/24 14:58:29;;;;;;;7.07;1.37;;;;;11.00;100496.00;;;;13764676;21;20263;-82
2024/04/24 15:03:31;;;;;;;8.53;1.83;;;;;11.10;100482.00;;;;13763084;21;20351;-85
2024/04/24 15:08:32;;;;;;;5.30;1.37;;;;;11.20;100485.00;;;;13770073;21;20291;-85
2024/04/24 15:13:34;;;;;;;2.80;0.70;;;;;11.30;100480.00;;;;13799235;21;20252;-86
2024/04/24 15:18:35;;;;;;;11.60;1.30;;;;;11.90;100486.00;;;;13825737;21;20953;-84
2024/04/24 15:23:37;;;;;;;3.03;0.90;;;;;11.80;100485.00;;;;13773871;21;20291;-84
2024/04/24 15:28:38;;;;;;;4.63;1.43;;;;;11.40;100470.00;;;;13736649;21;20255;-83
2024/04/24 15:33:40;;;;;;;5.03;1.30;;;;;10.90;100480.00;;;;13777872;21;20285;-82
2024/04/24 15:38:44;;;;;;;6.77;1.77;;;;;11.00;100490.00;;;;13780076;21;20275;-85
2024/04/24 15:43:45;;;;;;;7.53;1.87;;;;;10.80;100484.00;;;;13827296;21;20299;-85
2024/04/24 15:48:47;;;;;;;10.33;2.00;;;;;10.40;100489.00;;;;13780999;21;20675;-86
2024/04/24 15:53:49;;;;;;;3.73;1.03;;;;;10.20;100476.00;;;;13824346;21;20330;-85
2024/04/24 15:58:50;;;;;;;9.37;1.73;;;;;10.20;100494.00;;;;13796526;21;20248;-88
2024/04/24 16:03:52;;;;;;;7.63;2.03;;;;;10.10;100478.00;;;;13806721;21;20248;-86
2024/04/24 16:08:53;;;;;;;8.07;2.60;;;;;9.90;100485.00;;;;13817584;21;20248;-85
2024/04/24 16:13:55;;;;;;;4.37;1.40;;;;;10.00;100478.00;;;;13829341;21;20360;-84
2024/04/24 16:18:57;;;;;;;7.00;1.90;;;;;9.90;100489.00;;;;13807976;21;20321;-87
2024/04/24 16:23:58;;;;;;;6.30;1.73;;;;;9.80;100476.00;;;;13823395;21;20287;-86
2024/04/24 16:29:01;;;;;;;14.63;3.13;;;;;9.90;100487.00;;;;13814476;21;20255;-84
2024/04/24 16:34:02;;;;;;;7.60;2.07;;;;;9.80;100489.00;;;;13824674;21;20340;-86
2024/04/24 16:39:04;;;;;;;8.13;1.67;;;;;9.50;100479.00;;;;13790365;21;20270;-86
2024/04/24 16:44:05;;;;;;;7.57;1.50;;;;;9.40;100467.00;;;;13802538;21;20259;-86
2024/04/24 16:49:08;;;;;;;10.10;1.73;;;;;9.50;100472.00;;;;13785758;21;20598;-85
2024/04/24 16:54:09;;;;;;;4.73;0.97;;;;;9.50;100468.00;;;;13825366;21;20312;-84
2024/04/24 16:59:11;;;;;;;10.20;2.17;;;;;9.80;100467.00;;;;13740620;21;20282;-83
2024/04/24 17:04:12;;;;;;;6.37;1.27;;;;;9.60;100471.00;;;;13752771;21;20247;-84
2024/04/24 17:09:14;;;;;;;10.00;1.60;;;;;9.40;100473.00;;;;13830749;21;20275;-84
2024/04/24 17:14:15;;;;;;;5.73;1.23;;;;;9.30;100463.00;;;;13735752;21;20227;-84
2024/04/24 17:19:17;;;;;;;4.70;1.40;;;;;9.40;100478.00;;;;13786405;21;20278;-85
2024/04/24 17:24:19;;;;;;;6.03;1.20;;;;;9.40;100482.00;;;;13822498;21;20288;-82
2024/04/24 17:29:20;;;;;;;11.17;1.40;;;;;9.80;100479.00;;;;13746016;21;20247;-81
2024/04/24 17:34:23;;;;;;;11.40;1.73;;;;;9.50;100484.00;;;;13762621;21;20247;-83
2024/04/24 17:39:24;;;;;;;11.43;1.80;;;;;9.00;100488.00;;;;13719490;21;20555;-83
2024/04/24 17:44:26;;;;;;;5.80;1.20;;;;;8.70;100499.00;;;;13776767;21;20243;-84
2024/04/24 17:49:27;;;;;;;9.57;1.70;;;;;8.40;100507.00;;;;13744360;21;20269;-84
2024/04/24 17:54:29;;;;;;;10.43;2.50;;;;;8.20;100518.00;;;;13799394;21;20303;-84
2024/04/24 17:59:31;;;;;;;9.33;1.73;;;;;8.10;100522.00;;;;13811082;21;20259;-82
2024/04/24 18:04:33;;;;;;;6.90;1.70;;;;;7.90;100520.00;;;;13728937;21;20704;-83
2024/04/24 18:09:34;;;;;;;7.17;2.07;;;;;7.80;100521.00;;;;13799526;21;20271;-84
2024/04/24 18:14:36;;;;;;;7.73;1.30;;;;;7.70;100526.00;;;;13800715;21;20297;-83
2024/04/24 18:19:38;;;;;;;6.63;1.93;;;;;7.60;100525.00;;;;13765832;21;20284;-83
2024/04/24 18:24:41;;;;;;;5.30;1.47;;;;;7.40;100528.00;;;;13770287;21;20263;-83
2024/04/24 18:29:42;;;;;;;5.30;1.90;;;;;7.20;100530.00;;;;13780981;21;20270;-82
2024/04/24 18:34:44;;;;;;;6.90;1.60;;;;;7.20;100526.00;;;;13769837;21;21001;-88
2024/04/24 18:39:46;;;;;;;7.53;1.50;;;;;7.10;100522.00;;;;13769745;21;20255;-85
2024/04/24 18:44:47;;;;;;;8.40;1.63;;;;;7.00;100514.00;;;;13729302;21;20244;-85
2024/04/24 18:49:49;;;;;;;7.00;1.50;;;;;6.90;100530.00;;;;13782673;21;20247;-86
2024/04/24 18:54:50;;;;;;;5.80;2.27;;;;;6.70;100528.00;;;;13819445;21;20259;-83
2024/04/24 18:59:52;;;;;;;8.07;2.13;;;;;6.60;100526.00;;;;13728528;21;20259;-85
2024/04/24 19:04:53;;;;;;;8.33;1.77;;;;;6.50;100535.00;;;;13772827;21;20251;-86
2024/04/24 19:09:55;;;;;;;5.20;1.50;;;;;6.50;100530.00;;;;13817522;21;20255;-85
2024/04/24 19:14:56;;;;;;;6.17;1.30;;;;;6.40;100523.00;;;;13772456;21;20295;-86
2024/04/24 19:19:58;;;;;;;4.10;1.33;;;;;6.40;100525.00;;;;13818448;21;20839;-86
2024/04/24 19:25:00;;;;;;;7.50;1.40;;;;;6.40;100538.00;;;;13822755;21;20283;-85
2024/04/24 19:30:05;;;;;;;5.83;1.17;;;;;6.40;100527.00;;;;13789934;21;20240;-86
2024/04/24 19:35:07;;;;;;;2.97;0.90;;;;;6.30;100521.00;;;;13777449;21;20307;-86
2024/04/24 19:40:09;;;;;;;5.90;1.40;;;;;6.30;100531.00;;;;13817386;21;20266;-86
2024/04/24 19:45:10;;;;;;;4.70;1.27;;;;;6.10;100536.00;;;;13729211;21;20270;-82
2024/04/24 19:50:15;;;;;;;7.77;1.70;;;;;5.90;100537.00;;;;13765907;21;20251;-83
2024/04/24 19:55:17;;;;;;;5.57;1.30;;;;;5.70;100547.00;;;;13809981;21;20343;-82
2024/04/24 20:00:19;;;;;;;7.50;1.50;;;;;5.60;100545.00;;;;13808761;21;20295;-82
2024/04/24 20:05:20;;;;;;;8.27;1.90;;;;;5.50;100541.00;;;;13768488;21;20259;-82
2024/04/24 20:10:22;;;;;;;6.23;1.50;;;;;5.50;100551.00;;;;13761651;21;20283;-82
2024/04/24 20:15:23;;;;;;;7.20;1.80;;;;;5.50;100547.00;;;;13808380;21;20298;-82
2024/04/24 20:20:25;;;;;;;5.30;2.10;;;;;5.50;100548.00;;;;13808230;21;20286;-82
2024/04/24 20:25:26;;;;;;;8.67;2.47;;;;;5.50;100538.00;;;;13814551;21;20541;-81
2024/04/24 20:30:28;;;;;;;9.63;2.30;;;;;5.50;100546.00;;;;13761905;21;20259;-82
2024/04/24 20:35:30;;;;;;;8.53;2.30;;;;;5.60;100542.00;;;;13810869;21;20381;-82
2024/04/24 20:40:35;;;;;;;3.80;2.30;;;;;5.60;100549.00;;;;13807944;21;20717;-83
2024/04/24 20:45:36;;;;;;;10.07;2.67;;;;;5.70;100555.00;;;;13763317;21;20335;-82
2024/04/24 20:50:38;;;;;;;6.37;2.30;;;;;5.70;100543.00;;;;13764416;21;20751;-82
2024/04/24 20:55:40;;;;;;;9.67;2.37;;;;;5.80;100548.00;;;;13764537;21;20252;-80
2024/04/24 21:00:41;;;;;;;6.83;2.33;;;;;5.70;100555.00;;;;13809074;21;20316;-80
2024/04/24 21:05:43;;;;;;;6.83;2.80;;;;;5.70;100547.00;;;;13772270;21;20251;-80
2024/04/24 21:10:45;;;;;;;9.07;2.63;;;;;5.70;100546.00;;;;13722637;21;20247;-81
2024/04/24 21:15:47;;;;;;;10.93;2.47;;;;;5.70;100547.00;;;;13765042;21;20274;-81
2024/04/24 21:20:48;;;;;;;10.47;2.40;;;;;5.70;100553.00;;;;13762906;21;20370;-80
2024/04/24 21:25:50;;;;;;;6.00;2.30;;;;;5.70;100553.00;;;;13810132;21;20270;-80
2024/04/24 21:30:52;;;;;;;4.80;1.60;;;;;5.60;100550.00;;;;13762178;21;20251;-80
2024/04/24 21:35:55;;;;;;;4.53;1.53;;;;;5.60;100542.00;;;;13765844;21;20340;-81
2024/04/24 21:40:57;;;;;;;3.97;1.60;;;;;5.60;100537.00;;;;13813431;21;20650;-81
2024/04/24 21:46:06;;;;;;;7.20;1.33;;;;;5.40;100536.00;;;;13768435;21;20247;-80
2024/04/24 21:51:09;;;;;;;3.40;1.90;;;;;5.20;100534.00;;;;13770439;21;20624;-80
2024/04/24 21:56:11;;;;;;;3.83;1.10;;;;;5.10;100533.00;;;;13813477;21;20302;-80
2024/04/24 22:01:17;;;;;;;6.83;1.60;;;;;5.00;100537.00;;;;13813681;21;20267;-80
2024/04/24 22:06:19;;;;;;;6.67;1.60;;;;;5.00;100537.00;;;;13771122;21;20294;-86
2024/04/24 22:11:21;;;;;;;5.57;2.10;;;;;4.90;100528.00;;;;13771894;21;20248;-85
2024/04/24 22:16:22;;;;;;;6.97;1.57;;;;;4.90;100514.00;;;;13819115;21;20243;-85
2024/04/24 22:21:26;;;;;;;5.10;2.07;;;;;4.90;100508.00;;;;13815542;21;20882;-85
2024/04/24 22:26:29;;;;;;;6.27;1.63;;;;;4.80;100508.00;;;;13725569;21;20283;-86
2024/04/24 22:31:30;;;;;;;7.43;2.27;;;;;4.70;100510.00;;;;13774458;21;20259;-86
2024/04/24 22:36:32;;;;;;;12.63;2.03;;;;;4.70;100519.00;;;;13787887;21;20258;-85
2024/04/24 22:41:34;;;;;;;5.17;2.20;;;;;4.70;100512.00;;;;13819677;21;20287;-86
2024/04/24 22:46:35;;;;;;;4.13;1.47;;;;;4.70;100511.00;;;;13732777;21;20330;-86
2024/04/24 22:51:37;;;;;;;7.93;2.37;;;;;4.70;100513.00;;;;13820365;21;21078;-87
2024/04/24 22:56:41;;;;;;;8.63;2.33;;;;;4.70;100502.00;;;;13774139;21;20343;-86
2024/04/24 23:01:44;;;;;;;12.80;2.97;;;;;4.70;100497.00;;;;13819061;21;20352;-86
2024/04/24 23:06:45;;;;;;;9.77;3.43;;;;;4.70;100497.00;;;;13818375;21;20636;-84
2024/04/24 23:11:47;;;;;;;8.07;2.77;;;;;4.70;100490.00;;;;13773546;21;20247;-81
2024/04/24 23:16:48;;;;;;;8.60;2.70;;;;;4.70;100491.00;;;;13776065;21;20282;-84
2024/04/24 23:21:50;;;;;;;10.30;2.60;;;;;4.80;100492.00;;;;13820327;21;20263;-87
2024/04/24 23:26:51;;;;;;;7.07;2.80;;;;;4.80;100482.00;;;;13864249;21;20269;-88
2024/04/24 23:31:53;;;;;;;9.50;3.63;;;;;4.80;100491.00;;;;13772366;21;20317;-88
2024/04/24 23:36:55;;;;;;;6.10;2.40;;;;;4.70;100485.00;;;;13774660;21;20259;-87
2024/04/24 23:41:56;;;;;;;5.23;2.23;;;;;4.70;100485.00;;;;13772786;21;20688;-88
2024/04/24 23:46:57;;;;;;;6.57;2.37;;;;;4.60;100479.00;;;;13818424;21;20291;-83
2024/04/24 23:51:59;;;;;;;7.20;2.30;;;;;4.50;100473.00;;;;13819349;21;20248;-87
2024/04/24 23:57:01;;;;;;;6.20;2.00;;;;;4.50;100476.00;;;;13820495;21;20259;-85
